createdAt,value
2019-02-22T00:00:46.707Z,11.05
2019-02-22T00:03:15.332Z,12.33
2019-02-22T00:05:44.148Z,11.65
2019-02-22T00:08:12.720Z,12.07
2019-02-22T00:10:41.285Z,14.73
2019-02-22T00:13:09.952Z,14.50
2019-02-22T00:15:38.679Z,11.90
2019-02-22T00:18:07.175Z,11.40
2019-02-22T00:20:35.781Z,11.77
2019-02-22T00:23:04.495Z,10.77
2019-02-22T00:25:33.119Z,10.68
2019-02-22T00:28:01.808Z,10.60
2019-02-22T00:30:30.374Z,10.48
2019-02-22T00:32:59.113Z,11.70
2019-02-22T00:35:27.813Z,12.13
2019-02-22T00:37:56.255Z,12.85
2019-02-22T00:40:24.899Z,13.17
2019-02-22T00:42:53.706Z,12.07
2019-02-22T00:45:22.197Z,11.90
2019-02-22T00:47:50.816Z,11.87
2019-02-22T00:50:19.493Z,12.73
2019-02-22T00:52:48.347Z,12.37
2019-02-22T00:55:16.895Z,11.50
2019-02-22T00:57:45.579Z,12.77
2019-02-22T01:00:14.673Z,12.03
2019-02-22T01:02:43.310Z,11.13
2019-02-22T01:05:12.000Z,11.00
2019-02-22T01:07:40.709Z,11.30
2019-02-22T01:10:09.339Z,10.30
2019-02-22T01:12:38.011Z,9.30
2019-02-22T01:15:07.028Z,10.40
2019-02-22T01:17:35.650Z,10.20
2019-02-22T01:20:05.108Z,10.90
2019-02-22T01:22:33.730Z,13.20
2019-02-22T01:25:02.354Z,11.80
2019-02-22T01:27:30.945Z,12.33
2019-02-22T01:29:59.436Z,13.37
2019-02-22T01:32:28.054Z,13.00
2019-02-22T01:34:56.963Z,12.00
2019-02-22T01:37:25.537Z,11.30
2019-02-22T01:39:54.959Z,11.93
2019-02-22T01:42:23.630Z,11.05
2019-02-22T01:44:52.181Z,12.30
2019-02-22T01:47:20.668Z,12.33
2019-02-22T01:49:49.441Z,12.13
2019-02-22T01:52:18.091Z,12.33
2019-02-22T01:54:46.705Z,11.93
2019-02-22T01:57:15.373Z,12.40
2019-02-22T01:59:44.349Z,12.80
2019-02-22T02:02:13.019Z,12.40
2019-02-22T02:04:41.644Z,12.43
2019-02-22T02:07:10.281Z,13.10
2019-02-22T02:09:38.841Z,13.10
2019-02-22T02:12:07.520Z,13.90
2019-02-22T02:14:36.085Z,11.80
2019-02-22T02:17:04.704Z,12.13
2019-02-22T02:19:33.319Z,12.90
2019-02-22T02:22:01.941Z,12.73
2019-02-22T02:24:30.574Z,12.67
2019-02-22T02:26:59.113Z,12.53
2019-02-22T02:29:27.696Z,14.60
2019-02-22T02:31:56.354Z,12.80
2019-02-22T02:34:25.141Z,13.30
2019-02-22T02:36:53.789Z,12.40
2019-02-22T02:39:22.340Z,13.47
2019-02-22T02:41:50.935Z,13.13
2019-02-22T02:44:19.497Z,13.40
2019-02-22T02:46:49.898Z,13.80
2019-02-22T02:49:18.583Z,13.03
2019-02-22T02:51:47.150Z,12.80
2019-02-22T02:54:15.709Z,13.73
2019-02-22T02:56:46.275Z,13.00
2019-02-22T02:59:14.661Z,13.37
2019-02-22T03:01:43.362Z,14.63
2019-02-22T03:04:11.971Z,13.80
2019-02-22T03:06:42.241Z,13.93
2019-02-22T03:09:10.795Z,13.73
2019-02-22T03:11:39.312Z,14.20
2019-02-22T03:14:07.944Z,13.90
2019-02-22T03:16:36.571Z,13.60
2019-02-22T03:19:05.481Z,15.23
2019-02-22T03:21:34.111Z,15.27
2019-02-22T03:24:02.670Z,17.30
2019-02-22T03:26:31.279Z,17.40
2019-02-22T03:28:59.827Z,19.03
2019-02-22T03:31:28.449Z,20.20
2019-02-22T03:33:57.069Z,20.90
2019-02-22T03:36:25.628Z,19.33
2019-02-22T03:38:54.194Z,20.93
2019-02-22T03:41:32.194Z,20.10
2019-02-22T03:43:53.136Z,18.70
2019-02-22T03:46:21.803Z,19.53
2019-02-22T03:48:50.458Z,19.87
2019-02-22T03:51:19.095Z,17.83
2019-02-22T03:53:48.954Z,17.80
2019-02-22T03:56:17.576Z,17.27
2019-02-22T03:58:46.210Z,17.73
2019-02-22T04:01:14.781Z,18.03
2019-02-22T04:03:43.656Z,17.20
2019-02-22T04:06:12.296Z,16.30
2019-02-22T04:08:40.871Z,17.83
2019-02-22T04:11:09.466Z,18.57
2019-02-22T04:13:38.090Z,18.17
2019-02-22T04:16:06.705Z,18.77
2019-02-22T04:18:35.667Z,18.17
2019-02-22T04:21:04.222Z,16.33
2019-02-22T04:23:32.785Z,17.30
2019-02-22T04:26:01.708Z,17.87
2019-02-22T04:28:30.340Z,16.50
2019-02-22T04:30:58.854Z,17.03
2019-02-22T04:33:27.452Z,17.30
2019-02-22T04:35:56.088Z,17.40
2019-02-22T04:38:24.664Z,17.33
2019-02-22T04:40:53.222Z,17.07
2019-02-22T04:43:21.778Z,17.90
2019-02-22T04:45:50.417Z,18.00
2019-02-22T04:48:19.103Z,18.10
2019-02-22T04:50:47.582Z,17.43
2019-02-22T04:53:16.129Z,17.57
2019-02-22T04:55:45.095Z,17.73
2019-02-22T04:58:13.667Z,16.30
2019-02-22T05:00:42.254Z,16.33
2019-02-22T05:03:10.927Z,16.90
2019-02-22T05:05:39.628Z,17.73
2019-02-22T05:08:08.216Z,18.17
2019-02-22T05:10:36.868Z,19.77
2019-02-22T05:13:05.526Z,18.23
2019-02-22T05:15:34.092Z,18.67
2019-02-22T05:18:02.700Z,18.30
2019-02-22T05:20:31.315Z,21.37
2019-02-22T05:23:03.783Z,19.07
2019-02-22T05:25:30.200Z,19.60
2019-02-22T05:28:01.504Z,20.87
2019-02-22T05:30:30.149Z,21.73
2019-02-22T05:32:58.777Z,21.23
2019-02-22T05:35:27.278Z,24.07
2019-02-22T05:37:55.832Z,19.97
2019-02-22T05:40:24.544Z,19.00
2019-02-22T05:42:53.099Z,20.53
2019-02-22T05:45:21.583Z,21.93
2019-02-22T05:47:50.183Z,18.43
2019-02-22T05:50:18.806Z,18.97
2019-02-22T05:52:47.395Z,17.80
2019-02-22T05:55:16.439Z,19.20
2019-02-22T05:57:44.998Z,20.97
2019-02-22T06:00:14.334Z,18.23
2019-02-22T06:02:43.014Z,19.33
2019-02-22T06:05:11.656Z,19.77
2019-02-22T06:07:40.286Z,19.73
2019-02-22T06:10:10.341Z,19.93
2019-02-22T06:12:38.967Z,19.73
2019-02-22T06:15:08.691Z,18.52
2019-02-22T06:17:37.370Z,17.65
2019-02-22T06:20:08.901Z,19.75
2019-02-22T06:22:37.456Z,18.80
2019-02-22T06:25:07.317Z,19.57
2019-02-22T06:27:35.930Z,18.85
2019-02-22T06:30:06.862Z,21.23
2019-02-22T06:32:35.725Z,19.67
2019-02-22T06:35:04.842Z,20.20
2019-02-22T06:37:33.426Z,21.87
2019-02-22T06:40:02.073Z,20.62
2019-02-22T06:42:30.637Z,21.77
2019-02-22T06:44:59.217Z,23.15
2019-02-22T06:47:27.807Z,23.00
2019-02-22T06:49:56.490Z,21.45
2019-02-22T06:52:25.129Z,22.48
2019-02-22T06:54:53.756Z,22.15
2019-02-22T06:57:22.333Z,22.80
2019-02-22T06:59:50.952Z,23.10
2019-02-22T07:02:19.932Z,25.35
2019-02-22T07:04:48.486Z,24.35
2019-02-22T07:07:17.185Z,24.85
2019-02-22T07:09:45.853Z,24.87
2019-02-22T07:12:25.364Z,25.62
2019-02-22T07:14:53.966Z,24.92
2019-02-22T07:17:22.516Z,25.12
2019-02-22T07:19:51.165Z,25.40
2019-02-22T07:22:19.854Z,27.40
2019-02-22T07:24:48.536Z,26.97
2019-02-22T07:27:17.182Z,27.62
2019-02-22T07:29:45.722Z,26.47
2019-02-22T07:32:14.287Z,26.62
2019-02-22T07:34:42.921Z,25.43
2019-02-22T07:37:11.778Z,22.65
2019-02-22T07:39:40.257Z,22.52
2019-02-22T07:42:08.821Z,21.00
2019-02-22T07:44:37.754Z,22.60
2019-02-22T07:47:06.317Z,21.57
2019-02-22T07:49:34.820Z,23.15
2019-02-22T07:52:03.595Z,22.80
2019-02-22T07:54:32.158Z,25.27
2019-02-22T07:57:00.789Z,26.97
2019-02-22T07:59:29.443Z,24.20
2019-02-22T08:01:58.008Z,21.42
2019-02-22T08:04:26.504Z,19.70
2019-02-22T08:06:55.153Z,19.30
2019-02-22T08:09:23.777Z,18.95
2019-02-22T08:11:58.624Z,15.40
2019-02-22T08:14:27.257Z,15.10
2019-02-22T08:16:55.816Z,15.72
2019-02-22T08:19:24.444Z,18.02
2019-02-22T08:21:53.008Z,23.77
2019-02-22T08:24:21.828Z,14.98
2019-02-22T08:26:50.662Z,15.80
2019-02-22T08:29:19.277Z,16.52
2019-02-22T08:31:48.110Z,16.40
2019-02-22T08:34:16.714Z,17.92
2019-02-22T08:36:45.340Z,19.07
2019-02-22T08:39:13.905Z,18.32
2019-02-22T08:41:42.481Z,20.62
2019-02-22T08:44:11.107Z,17.40
2019-02-22T08:46:39.929Z,15.05
2019-02-22T08:49:08.423Z,18.65
2019-02-22T08:51:36.998Z,15.32
2019-02-22T08:54:05.660Z,14.07
2019-02-22T08:56:34.318Z,18.75
2019-02-22T08:59:02.934Z,13.20
2019-02-22T09:01:31.715Z,13.08
2019-02-22T09:04:00.349Z,14.40
2019-02-22T09:06:28.910Z,12.58
2019-02-22T09:08:57.433Z,12.07
2019-02-22T09:11:26.063Z,16.00
2019-02-22T09:13:54.632Z,13.48
2019-02-22T09:16:23.508Z,11.80
2019-02-22T09:18:52.151Z,14.53
2019-02-22T09:21:20.776Z,14.87
2019-02-22T09:23:49.306Z,15.48
2019-02-22T09:26:17.934Z,11.55
2019-02-22T09:28:46.584Z,11.60
2019-02-22T09:31:15.179Z,12.50
2019-02-22T09:33:43.738Z,12.35
2019-02-22T09:36:12.301Z,12.40
2019-02-22T09:38:41.059Z,11.88
2019-02-22T09:41:09.672Z,8.93
2019-02-22T09:43:38.161Z,9.93
2019-02-22T09:46:06.780Z,9.43
2019-02-22T09:48:35.546Z,8.48
2019-02-22T09:51:04.114Z,7.60
2019-02-22T09:53:32.617Z,7.80
2019-02-22T09:56:01.186Z,10.95
2019-02-22T09:58:29.844Z,10.08
2019-02-22T10:00:58.406Z,9.13
2019-02-22T10:03:26.873Z,9.95
2019-02-22T10:05:55.716Z,8.25
2019-02-22T10:08:24.315Z,11.63
2019-02-22T10:10:52.862Z,13.35
2019-02-22T10:13:21.392Z,14.83
2019-02-22T10:15:50.021Z,11.78
2019-02-22T10:18:18.655Z,10.60
2019-02-22T10:20:47.337Z,9.05
2019-02-22T10:23:15.851Z,10.85
2019-02-22T10:25:44.492Z,11.78
2019-02-22T10:28:17.868Z,10.43
2019-02-22T10:30:43.454Z,11.70
2019-02-22T10:33:12.085Z,9.40
2019-02-22T10:35:40.744Z,11.50
2019-02-22T10:38:09.317Z,11.68
2019-02-22T10:40:39.316Z,11.70
2019-02-22T10:43:08.185Z,12.05
2019-02-22T10:45:37.109Z,10.75
2019-02-22T10:48:05.857Z,11.45
2019-02-22T10:50:34.524Z,13.30
2019-02-22T10:53:03.175Z,15.10
2019-02-22T10:55:31.802Z,14.68
2019-02-22T10:58:00.627Z,14.98
2019-02-22T11:00:29.244Z,14.30
2019-02-22T11:02:57.880Z,14.93
2019-02-22T11:05:26.487Z,13.72
2019-02-22T11:07:55.012Z,10.75
2019-02-22T11:10:23.651Z,10.58
2019-02-22T11:12:52.301Z,11.03
2019-02-22T11:15:20.962Z,10.68
2019-02-22T11:17:49.587Z,9.18
2019-02-22T11:20:18.432Z,10.63
2019-02-22T11:22:47.046Z,10.65
2019-02-22T11:25:16.639Z,9.33
2019-02-22T11:27:45.427Z,10.28
2019-02-22T11:30:15.267Z,10.85
2019-02-22T11:32:43.753Z,10.78
2019-02-22T11:35:12.419Z,11.22
2019-02-22T11:37:41.047Z,11.85
2019-02-22T11:40:11.704Z,11.80
2019-02-22T11:42:40.522Z,10.98
2019-02-22T11:45:10.332Z,12.45
2019-02-22T11:47:38.969Z,10.13
2019-02-22T11:50:11.423Z,11.93
2019-02-22T11:52:40.053Z,11.55
2019-02-22T11:55:09.889Z,11.30
2019-02-22T11:57:38.644Z,9.75
2019-02-22T12:00:11.363Z,9.65
2019-02-22T12:02:40.051Z,10.53
2019-02-22T12:05:08.645Z,9.83
2019-02-22T12:07:37.125Z,8.80
2019-02-22T12:10:07.855Z,8.88
2019-02-22T12:12:36.568Z,10.53
2019-02-22T12:15:08.293Z,9.43
2019-02-22T12:17:36.793Z,11.10
2019-02-22T12:20:06.773Z,12.50
2019-02-22T12:22:35.395Z,10.20
2019-02-22T12:25:04.621Z,6.55
2019-02-22T12:27:33.196Z,5.50
2019-02-22T12:30:01.753Z,5.75
2019-02-22T12:32:30.301Z,6.00
2019-02-22T12:34:58.919Z,7.35
2019-02-22T12:37:27.543Z,7.05
2019-02-22T12:39:56.277Z,7.87
2019-02-22T12:42:25.151Z,17.77
2019-02-22T12:45:02.554Z,10.53
2019-02-22T12:47:24.065Z,10.65
2019-02-22T12:49:52.660Z,9.23
2019-02-22T12:52:21.154Z,18.52
2019-02-22T12:54:49.710Z,12.30
2019-02-22T12:57:18.378Z,10.48
2019-02-22T12:59:46.926Z,8.03
2019-02-22T13:02:15.494Z,9.70
2019-02-22T13:04:44.080Z,9.68
2019-02-22T13:07:12.717Z,8.35
2019-02-22T13:09:41.289Z,7.40
2019-02-22T13:12:14.109Z,6.60
2019-02-22T13:14:40.388Z,6.30
2019-02-22T13:17:09.090Z,6.40
2019-02-22T13:19:38.004Z,7.42
2019-02-22T13:22:06.627Z,8.25
2019-02-22T13:24:35.184Z,7.85
2019-02-22T13:27:04.001Z,8.93
2019-02-22T13:29:32.564Z,9.55
2019-02-22T13:32:01.182Z,9.53
2019-02-22T13:34:29.790Z,12.00
2019-02-22T13:36:58.348Z,10.90
2019-02-22T13:39:26.979Z,13.28
2019-02-22T13:41:55.815Z,12.23
2019-02-22T13:44:24.520Z,13.05
2019-02-22T13:46:53.094Z,14.15
2019-02-22T13:49:21.903Z,15.35
2019-02-22T13:51:50.531Z,19.23
2019-02-22T13:54:19.094Z,15.95
2019-02-22T13:56:48.153Z,15.50
2019-02-22T13:59:16.811Z,18.02
2019-02-22T14:01:45.402Z,19.27
2019-02-22T14:04:14.068Z,18.42
2019-02-22T14:06:42.705Z,17.10
2019-02-22T14:09:11.306Z,15.75
2019-02-22T14:11:40.805Z,14.23
2019-02-22T14:14:09.363Z,14.95
2019-02-22T14:16:38.010Z,17.52
2019-02-22T14:19:06.699Z,15.58
2019-02-22T14:21:35.234Z,16.17
2019-02-22T14:24:03.785Z,17.20
2019-02-22T14:26:32.471Z,17.87
2019-02-22T14:29:01.038Z,17.10
2019-02-22T14:31:29.656Z,16.00
2019-02-22T14:33:58.212Z,13.62
2019-02-22T14:36:29.054Z,13.03
2019-02-22T14:38:57.119Z,10.10
2019-02-22T14:41:27.937Z,9.10
2019-02-22T14:43:56.200Z,9.88
2019-02-22T14:46:26.167Z,10.25
2019-02-22T14:48:54.891Z,10.40
2019-02-22T14:51:23.511Z,8.73
2019-02-22T14:53:52.350Z,7.22
2019-02-22T14:56:20.830Z,7.50
2019-02-22T14:58:49.459Z,10.98
2019-02-22T15:01:18.094Z,10.55
2019-02-22T15:03:46.977Z,10.75
2019-02-22T15:06:15.744Z,10.32
2019-02-22T15:08:44.311Z,10.28
2019-02-22T15:11:12.958Z,10.82
2019-02-22T15:13:41.508Z,11.48
2019-02-22T15:16:28.089Z,8.68
2019-02-22T15:18:56.711Z,8.58
2019-02-22T15:21:25.338Z,8.83
2019-02-22T15:23:54.191Z,8.58
2019-02-22T15:26:22.814Z,8.30
2019-02-22T15:28:51.343Z,8.63
2019-02-22T15:31:20.083Z,10.38
2019-02-22T15:33:48.633Z,11.57
2019-02-22T15:36:17.234Z,10.88
2019-02-22T15:38:45.856Z,9.48
2019-02-22T15:41:14.478Z,10.53
2019-02-22T15:43:43.349Z,9.00
2019-02-22T15:46:12.609Z,8.58
2019-02-22T15:48:41.295Z,8.75
2019-02-22T15:51:10.062Z,16.00
2019-02-22T15:53:38.604Z,11.53
2019-02-22T15:56:07.252Z,13.20
2019-02-22T15:58:35.918Z,13.45
2019-02-22T16:01:04.746Z,15.50
2019-02-22T16:03:50.359Z,26.23
2019-02-22T16:06:19.012Z,17.35
2019-02-22T16:08:47.644Z,25.43
2019-02-22T16:11:16.497Z,37.03
2019-02-22T16:13:45.149Z,40.60
2019-02-22T16:16:22.960Z,14.50
2019-02-22T16:18:44.187Z,10.28
2019-02-22T16:21:12.674Z,18.17
2019-02-22T16:23:41.297Z,14.95
2019-02-22T16:26:10.040Z,10.55
2019-02-22T16:28:38.660Z,8.90
2019-02-22T16:31:07.564Z,7.90
2019-02-22T16:33:36.216Z,7.65
2019-02-22T16:36:04.713Z,7.55
2019-02-22T16:38:33.259Z,8.03
2019-02-22T16:41:01.925Z,8.33
2019-02-22T16:43:30.494Z,6.92
2019-02-22T16:45:59.119Z,9.65
2019-02-22T16:48:28.011Z,10.03
2019-02-22T16:50:56.654Z,8.85
2019-02-22T16:53:25.206Z,8.20
2019-02-22T16:55:53.760Z,9.03
2019-02-22T16:58:22.310Z,9.83
2019-02-22T17:00:50.947Z,10.33
2019-02-22T17:03:19.620Z,9.63
2019-02-22T17:05:48.185Z,8.75
2019-02-22T17:08:16.753Z,10.28
2019-02-22T17:10:45.558Z,12.00
2019-02-22T17:13:14.196Z,14.55
2019-02-22T17:15:42.843Z,15.33
2019-02-22T17:18:11.514Z,18.35
2019-02-22T17:20:40.014Z,14.35
2019-02-22T17:23:08.587Z,12.23
2019-02-22T17:25:37.252Z,9.73
2019-02-22T17:28:05.798Z,9.95
2019-02-22T17:30:34.325Z,8.88
2019-02-22T17:33:02.929Z,10.50
2019-02-22T17:35:31.604Z,9.30
2019-02-22T17:38:00.144Z,9.40
2019-02-22T17:40:31.271Z,10.13
2019-02-22T17:42:59.905Z,12.37
2019-02-22T17:45:28.537Z,12.05
2019-02-22T17:47:57.269Z,11.37
2019-02-22T17:50:25.851Z,10.95
2019-02-22T17:52:54.398Z,11.83
2019-02-22T17:55:22.945Z,8.83
2019-02-22T17:57:51.503Z,7.15
2019-02-22T18:00:21.758Z,7.97
2019-02-22T18:02:50.438Z,8.93
2019-02-22T18:05:18.993Z,9.08
2019-02-22T18:07:47.561Z,8.90
2019-02-22T18:10:16.228Z,10.93
2019-02-22T18:12:44.811Z,12.30
2019-02-22T18:15:17.610Z,30.37
2019-02-22T18:17:47.286Z,12.40
2019-02-22T18:20:15.900Z,12.75
2019-02-22T18:22:44.482Z,13.78
2019-02-22T18:25:13.525Z,13.88
2019-02-22T18:27:42.089Z,15.03
2019-02-22T18:30:19.594Z,14.83
2019-02-22T18:32:48.378Z,15.97
2019-02-22T18:35:17.277Z,16.00
2019-02-22T18:37:45.886Z,14.87
2019-02-22T18:40:22.147Z,14.13
2019-02-22T18:42:51.009Z,15.30
2019-02-22T18:45:19.651Z,16.97
2019-02-22T18:47:48.204Z,15.20
2019-02-22T18:50:16.828Z,17.50
2019-02-22T18:52:45.415Z,17.53
2019-02-22T18:55:14.039Z,18.67
2019-02-22T18:57:42.655Z,19.30
2019-02-22T19:00:21.178Z,19.07
2019-02-22T19:02:50.274Z,20.10
2019-02-22T19:05:18.927Z,21.73
2019-02-22T19:07:47.566Z,21.90
2019-02-22T19:10:19.951Z,22.30
2019-02-22T19:12:48.510Z,22.85
2019-02-22T19:15:17.242Z,22.07
2019-02-22T19:17:46.036Z,22.07
2019-02-22T19:20:16.571Z,22.60
2019-02-22T19:22:45.199Z,21.43
2019-02-22T19:25:13.873Z,17.52
2019-02-22T19:27:42.500Z,19.43
2019-02-22T19:30:19.332Z,18.90
2019-02-22T19:32:48.113Z,18.45
2019-02-22T19:35:16.707Z,19.62
2019-02-22T19:37:45.620Z,20.95
2019-02-22T19:40:20.245Z,22.17
2019-02-22T19:42:48.824Z,24.27
2019-02-22T19:45:17.623Z,23.87
2019-02-22T19:47:46.258Z,24.90
2019-02-22T19:50:15.197Z,27.10
2019-02-22T19:52:43.817Z,28.73
2019-02-22T19:55:16.996Z,29.50
2019-02-22T19:57:45.556Z,25.75
2019-02-22T20:00:18.861Z,25.93
2019-02-22T20:02:47.471Z,23.97
2019-02-22T20:05:16.312Z,23.80
2019-02-22T20:07:45.004Z,23.23
2019-02-22T20:10:18.177Z,23.65
2019-02-22T20:12:46.300Z,24.00
2019-02-22T20:15:18.697Z,23.57
2019-02-22T20:17:53.770Z,22.67
2019-02-22T20:20:18.677Z,22.02
2019-02-22T20:22:47.564Z,22.07
2019-02-22T20:25:16.270Z,20.90
2019-02-22T20:27:44.901Z,20.40
2019-02-22T20:30:17.755Z,17.80
2019-02-22T20:32:46.348Z,16.90
2019-02-22T20:35:17.617Z,16.40
2019-02-22T20:37:52.550Z,15.93
2019-02-22T20:40:16.573Z,14.57
2019-02-22T20:42:45.202Z,14.20
2019-02-22T20:45:14.082Z,14.47
2019-02-22T20:47:42.718Z,13.93
2019-02-22T20:50:12.550Z,14.67
2019-02-22T20:52:41.220Z,15.40
2019-02-22T20:55:10.750Z,14.33
2019-02-22T20:57:39.310Z,13.77
2019-02-22T21:00:25.116Z,12.80
2019-02-22T21:02:53.681Z,14.50
2019-02-22T21:05:22.538Z,15.30
2019-02-22T21:07:51.094Z,14.60
2019-02-22T21:10:20.940Z,14.47
2019-02-22T21:12:49.838Z,14.68
2019-02-22T21:15:18.408Z,13.27
2019-02-22T21:17:46.994Z,14.93
2019-02-22T21:20:20.766Z,15.70
2019-02-22T21:22:49.403Z,15.50
2019-02-22T21:25:18.029Z,13.43
2019-02-22T21:27:46.634Z,13.72
2019-02-22T21:30:16.862Z,13.27
2019-02-22T21:32:45.500Z,12.53
2019-02-22T21:35:14.169Z,12.30
2019-02-22T21:37:43.609Z,11.22
2019-02-22T21:40:13.145Z,9.90
2019-02-22T21:42:41.754Z,9.43
2019-02-22T21:45:15.170Z,9.37
2019-02-22T21:47:54.435Z,8.60
2019-02-22T21:50:15.476Z,8.83
2019-02-22T21:52:43.861Z,7.57
2019-02-22T21:55:16.109Z,6.63
2019-02-22T21:57:44.693Z,6.85
2019-02-22T22:00:18.567Z,6.50
2019-02-22T22:02:47.190Z,6.43
2019-02-22T22:05:15.949Z,5.67
2019-02-22T22:07:44.499Z,6.28
2019-02-22T22:10:13.209Z,6.72
2019-02-22T22:12:42.052Z,11.55
2019-02-22T22:15:12.607Z,9.70
2019-02-22T22:17:41.243Z,7.47
2019-02-22T22:20:11.392Z,6.08
2019-02-22T22:22:40.102Z,6.93
2019-02-22T22:25:10.719Z,6.47
2019-02-22T22:27:39.486Z,7.47
2019-02-22T22:30:10.778Z,5.30
2019-02-22T22:32:39.399Z,3.43
2019-02-22T22:35:14.092Z,2.93
2019-02-22T22:37:42.724Z,4.37
2019-02-22T22:40:11.652Z,1.07
2019-02-22T22:42:40.313Z,0.60
2019-02-22T22:45:13.169Z,0.30
2019-02-22T22:47:44.695Z,0.40
2019-02-22T22:50:17.243Z,0.30
2019-02-22T22:52:45.961Z,0.40
2019-02-22T22:55:14.636Z,0.50
2019-02-22T22:57:43.198Z,0.83
2019-02-22T23:00:40.179Z,0.70
2019-02-22T23:03:08.891Z,0.60
2019-02-22T23:05:37.510Z,1.13
2019-02-22T23:08:06.174Z,0.40
2019-02-22T23:10:34.803Z,0.30
2019-02-22T23:13:03.378Z,0.40
2019-02-22T23:15:32.157Z,0.10
2019-02-22T23:18:00.705Z,0.20
2019-02-22T23:20:29.258Z,0.30
2019-02-22T23:22:57.919Z,0.50
2019-02-22T23:25:26.540Z,2.33
2019-02-22T23:27:55.155Z,3.50
2019-02-22T23:30:23.681Z,2.03
2019-02-22T23:32:52.309Z,0.10
2019-02-22T23:35:21.336Z,0.00
2019-02-22T23:37:49.952Z,0.10
2019-02-22T23:40:18.442Z,0.00
2019-02-22T23:42:47.116Z,0.10
2019-02-22T23:45:15.793Z,0.10
2019-02-22T23:47:44.352Z,0.00
2019-02-22T23:50:12.977Z,0.10
2019-02-22T23:52:41.662Z,0.20
2019-02-22T23:55:10.233Z,0.30
2019-02-22T23:57:38.871Z,0.20
